sensor_id;sensor_type;location;lat;lon;timestamp;P1;durP1;ratioP1;P2;durP2;ratioP2
31224;SDS011;17847;31.524;74.366;2023-03-17T01:49:30;11.02;;;9.77;;
31224;SDS011;17847;31.524;74.366;2023-03-17T01:52:21;10.13;;;8.77;;
31224;SDS011;17847;31.524;74.366;2023-03-17T01:57:49;11.52;;;9.50;;
31224;SDS011;17847;31.524;74.366;2023-03-17T02:00:46;10.93;;;8.63;;
31224;SDS011;17847;31.524;74.366;2023-03-17T02:03:29;9.23;;;8.30;;
31224;SDS011;17847;31.524;74.366;2023-03-17T02:06:25;10.20;;;8.48;;
31224;SDS011;17847;31.524;74.366;2023-03-17T02:09:01;10.27;;;8.57;;
31224;SDS011;17847;31.524;74.366;2023-03-17T02:11:57;11.43;;;10.18;;
31224;SDS011;17847;31.524;74.366;2023-03-17T02:14:42;10.07;;;8.88;;
31224;SDS011;17847;31.524;74.366;2023-03-17T02:17:38;10.63;;;9.52;;
31224;SDS011;17847;31.524;74.366;2023-03-17T02:23:09;14.80;;;12.32;;
31224;SDS011;17847;31.524;74.366;2023-03-17T02:25:46;16.88;;;13.55;;
31224;SDS011;17847;31.524;74.366;2023-03-17T02:28:42;16.25;;;13.05;;
31224;SDS011;17847;31.524;74.366;2023-03-17T02:31:26;16.50;;;13.23;;
31224;SDS011;17847;31.524;74.366;2023-03-17T02:34:16;17.58;;;13.95;;
31224;SDS011;17847;31.524;74.366;2023-03-17T02:36:59;19.73;;;13.65;;
31224;SDS011;17847;31.524;74.366;2023-03-17T02:39:47;17.98;;;13.27;;
31224;SDS011;17847;31.524;74.366;2023-03-17T02:42:31;18.95;;;14.68;;
31224;SDS011;17847;31.524;74.366;2023-03-17T02:45:33;20.80;;;15.70;;
31224;SDS011;17847;31.524;74.366;2023-03-17T02:48:30;22.35;;;16.13;;
31224;SDS011;17847;31.524;74.366;2023-03-17T02:51:06;23.63;;;17.35;;
31224;SDS011;17847;31.524;74.366;2023-03-17T02:54:01;23.25;;;17.02;;
31224;SDS011;17847;31.524;74.366;2023-03-17T02:56:38;24.52;;;17.13;;
31224;SDS011;17847;31.524;74.366;2023-03-17T02:59:34;21.50;;;15.98;;
31224;SDS011;17847;31.524;74.366;2023-03-17T03:02:12;20.25;;;16.42;;
31224;SDS011;17847;31.524;74.366;2023-03-17T03:05:07;23.73;;;17.80;;
31224;SDS011;17847;31.524;74.366;2023-03-17T03:07:51;24.30;;;17.58;;
31224;SDS011;17847;31.524;74.366;2023-03-17T03:10:46;24.13;;;18.35;;
31224;SDS011;17847;31.524;74.366;2023-03-17T03:13:22;24.67;;;19.27;;
31224;SDS011;17847;31.524;74.366;2023-03-17T03:16:17;23.83;;;18.55;;
31224;SDS011;17847;31.524;74.366;2023-03-17T03:19:00;22.23;;;17.30;;
31224;SDS011;17847;31.524;74.366;2023-03-17T03:21:49;20.65;;;17.13;;
31224;SDS011;17847;31.524;74.366;2023-03-17T03:24:25;22.30;;;16.55;;
31224;SDS011;17847;31.524;74.366;2023-03-17T03:27:20;27.80;;;16.02;;
31224;SDS011;17847;31.524;74.366;2023-03-17T03:30:02;22.55;;;16.58;;
31224;SDS011;17847;31.524;74.366;2023-03-17T03:32:54;24.85;;;16.13;;
31224;SDS011;17847;31.524;74.366;2023-03-17T03:35:30;19.25;;;15.40;;
31224;SDS011;17847;31.524;74.366;2023-03-17T03:38:26;20.75;;;15.57;;
31224;SDS011;17847;31.524;74.366;2023-03-17T03:41:08;21.25;;;15.95;;
31224;SDS011;17847;31.524;74.366;2023-03-17T03:43:57;20.75;;;15.75;;
31224;SDS011;17847;31.524;74.366;2023-03-17T03:46:33;21.05;;;15.25;;
31224;SDS011;17847;31.524;74.366;2023-03-17T03:49:29;23.25;;;14.65;;
31224;SDS011;17847;31.524;74.366;2023-03-17T03:52:04;20.02;;;14.07;;
31224;SDS011;17847;31.524;74.366;2023-03-17T03:54:59;20.10;;;14.00;;
31224;SDS011;17847;31.524;74.366;2023-03-17T03:57:35;16.35;;;12.60;;
31224;SDS011;17847;31.524;74.366;2023-03-17T04:00:31;18.85;;;12.35;;
31224;SDS011;17847;31.524;74.366;2023-03-17T04:03:06;15.25;;;12.30;;
31224;SDS011;17847;31.524;74.366;2023-03-17T04:06:02;21.60;;;12.68;;
31224;SDS011;17847;31.524;74.366;2023-03-17T04:08:45;17.73;;;12.55;;
31224;SDS011;17847;31.524;74.366;2023-03-17T04:11:37;20.40;;;13.93;;
31224;SDS011;17847;31.524;74.366;2023-03-17T04:14:20;18.70;;;13.25;;
31224;SDS011;17847;31.524;74.366;2023-03-17T04:17:12;22.05;;;14.80;;
31224;SDS011;17847;31.524;74.366;2023-03-17T04:19:55;24.20;;;15.53;;
31224;SDS011;17847;31.524;74.366;2023-03-17T04:22:43;26.13;;;14.90;;
31224;SDS011;17847;31.524;74.366;2023-03-17T04:25:26;21.38;;;14.30;;
31224;SDS011;17847;31.524;74.366;2023-03-17T04:28:15;20.52;;;14.55;;
31224;SDS011;17847;31.524;74.366;2023-03-17T04:30:58;22.67;;;15.45;;
31224;SDS011;17847;31.524;74.366;2023-03-17T04:33:47;21.55;;;14.98;;
31224;SDS011;17847;31.524;74.366;2023-03-17T04:36:30;20.83;;;13.75;;
31224;SDS011;17847;31.524;74.366;2023-03-17T04:39:25;19.92;;;14.98;;
31224;SDS011;17847;31.524;74.366;2023-03-17T04:42:07;21.95;;;16.13;;
31224;SDS011;17847;31.524;74.366;2023-03-17T04:44:59;20.48;;;14.95;;
31224;SDS011;17847;31.524;74.366;2023-03-17T04:47:56;19.70;;;15.98;;
31224;SDS011;17847;31.524;74.366;2023-03-17T04:50:39;20.40;;;15.68;;
31224;SDS011;17847;31.524;74.366;2023-03-17T04:53:28;20.88;;;16.33;;
31224;SDS011;17847;31.524;74.366;2023-03-17T04:56:11;28.02;;;15.45;;
31224;SDS011;17847;31.524;74.366;2023-03-17T04:58:59;21.10;;;14.45;;
31224;SDS011;17847;31.524;74.366;2023-03-17T05:01:42;21.63;;;14.35;;
31224;SDS011;17847;31.524;74.366;2023-03-17T05:04:37;19.63;;;14.25;;
31224;SDS011;17847;31.524;74.366;2023-03-17T05:07:20;17.75;;;12.98;;
31224;SDS011;17847;31.524;74.366;2023-03-17T05:10:10;21.77;;;13.15;;
31224;SDS011;17847;31.524;74.366;2023-03-17T05:12:54;16.80;;;13.00;;
31224;SDS011;17847;31.524;74.366;2023-03-17T05:15:46;18.02;;;13.10;;
31224;SDS011;17847;31.524;74.366;2023-03-17T05:18:29;16.17;;;11.97;;
31224;SDS011;17847;31.524;74.366;2023-03-17T05:21:24;15.63;;;11.77;;
31224;SDS011;17847;31.524;74.366;2023-03-17T05:24:00;16.42;;;12.82;;
31224;SDS011;17847;31.524;74.366;2023-03-17T05:26:55;19.50;;;12.85;;
31224;SDS011;17847;31.524;74.366;2023-03-17T05:29:37;14.02;;;11.77;;
31224;SDS011;17847;31.524;74.366;2023-03-17T05:32:26;17.02;;;11.70;;
31224;SDS011;17847;31.524;74.366;2023-03-17T05:35:09;18.25;;;12.63;;
31224;SDS011;17847;31.524;74.366;2023-03-17T05:37:58;19.02;;;12.10;;
31224;SDS011;17847;31.524;74.366;2023-03-17T05:40:34;14.65;;;11.35;;
31224;SDS011;17847;31.524;74.366;2023-03-17T05:43:29;22.40;;;12.07;;
31224;SDS011;17847;31.524;74.366;2023-03-17T05:46:17;17.25;;;11.75;;
31224;SDS011;17847;31.524;74.366;2023-03-17T05:49:00;15.57;;;11.80;;
31224;SDS011;17847;31.524;74.366;2023-03-17T05:51:55;16.98;;;12.48;;
31224;SDS011;17847;31.524;74.366;2023-03-17T05:54:39;18.13;;;12.63;;
31224;SDS011;17847;31.524;74.366;2023-03-17T05:57:29;20.02;;;13.38;;
31224;SDS011;17847;31.524;74.366;2023-03-17T06:00:12;15.65;;;13.15;;
31224;SDS011;17847;31.524;74.366;2023-03-17T06:03:04;16.58;;;12.95;;
31224;SDS011;17847;31.524;74.366;2023-03-17T06:05:48;18.40;;;13.02;;
31224;SDS011;17847;31.524;74.366;2023-03-17T06:08:37;25.00;;;15.75;;
31224;SDS011;17847;31.524;74.366;2023-03-17T06:11:20;19.17;;;12.63;;
31224;SDS011;17847;31.524;74.366;2023-03-17T06:14:15;22.25;;;12.90;;
31224;SDS011;17847;31.524;74.366;2023-03-17T06:16:52;18.17;;;13.25;;
31224;SDS011;17847;31.524;74.366;2023-03-17T06:19:47;15.73;;;11.68;;
31224;SDS011;17847;31.524;74.366;2023-03-17T06:22:23;13.25;;;10.80;;
31224;SDS011;17847;31.524;74.366;2023-03-17T06:25:31;15.68;;;10.80;;
31224;SDS011;17847;31.524;74.366;2023-03-17T06:28:15;12.95;;;10.45;;
31224;SDS011;17847;31.524;74.366;2023-03-17T06:31:03;14.48;;;11.25;;
31224;SDS011;17847;31.524;74.366;2023-03-17T06:33:46;14.05;;;10.73;;
31224;SDS011;17847;31.524;74.366;2023-03-17T06:36:36;19.73;;;11.77;;
31224;SDS011;17847;31.524;74.366;2023-03-17T06:39:19;17.27;;;12.38;;
31224;SDS011;17847;31.524;74.366;2023-03-17T06:42:07;13.93;;;11.00;;
31224;SDS011;17847;31.524;74.366;2023-03-17T06:44:56;14.07;;;11.07;;
31224;SDS011;17847;31.524;74.366;2023-03-17T06:47:51;12.93;;;10.75;;
31224;SDS011;17847;31.524;74.366;2023-03-17T06:50:34;12.50;;;10.48;;
31224;SDS011;17847;31.524;74.366;2023-03-17T06:53:22;13.48;;;10.38;;
31224;SDS011;17847;31.524;74.366;2023-03-17T06:56:05;12.48;;;10.25;;
31224;SDS011;17847;31.524;74.366;2023-03-17T06:59:08;13.25;;;10.10;;
31224;SDS011;17847;31.524;74.366;2023-03-17T07:01:51;10.95;;;9.20;;
31224;SDS011;17847;31.524;74.366;2023-03-17T07:04:40;10.13;;;8.55;;
31224;SDS011;17847;31.524;74.366;2023-03-17T07:07:23;14.27;;;9.90;;
31224;SDS011;17847;31.524;74.366;2023-03-17T07:10:11;11.57;;;9.25;;
31224;SDS011;17847;31.524;74.366;2023-03-17T07:12:56;11.75;;;9.40;;
31224;SDS011;17847;31.524;74.366;2023-03-17T07:15:48;11.52;;;9.32;;
31224;SDS011;17847;31.524;74.366;2023-03-17T07:18:33;11.07;;;9.25;;
31224;SDS011;17847;31.524;74.366;2023-03-17T07:21:21;14.10;;;9.93;;
31224;SDS011;17847;31.524;74.366;2023-03-17T07:24:04;11.57;;;9.48;;
31224;SDS011;17847;31.524;74.366;2023-03-17T07:26:52;20.88;;;10.00;;
31224;SDS011;17847;31.524;74.366;2023-03-17T07:29:35;13.20;;;10.07;;
31224;SDS011;17847;31.524;74.366;2023-03-17T07:32:23;14.68;;;10.27;;
31224;SDS011;17847;31.524;74.366;2023-03-17T07:35:06;14.80;;;11.32;;
31224;SDS011;17847;31.524;74.366;2023-03-17T07:37:55;14.93;;;10.55;;
31224;SDS011;17847;31.524;74.366;2023-03-17T07:40:38;13.95;;;10.93;;
31224;SDS011;17847;31.524;74.366;2023-03-17T07:43:27;15.32;;;11.13;;
31224;SDS011;17847;31.524;74.366;2023-03-17T07:46:10;14.55;;;11.75;;
31224;SDS011;17847;31.524;74.366;2023-03-17T07:48:58;13.82;;;11.95;;
31224;SDS011;17847;31.524;74.366;2023-03-17T07:51:42;15.10;;;11.85;;
31224;SDS011;17847;31.524;74.366;2023-03-17T07:54:30;16.33;;;11.02;;
31224;SDS011;17847;31.524;74.366;2023-03-17T07:57:15;15.10;;;10.95;;
31224;SDS011;17847;31.524;74.366;2023-03-17T08:00:04;12.93;;;10.98;;
31224;SDS011;17847;31.524;74.366;2023-03-17T08:02:51;15.50;;;10.70;;
31224;SDS011;17847;31.524;74.366;2023-03-17T08:05:50;16.70;;;11.88;;
31224;SDS011;17847;31.524;74.366;2023-03-17T08:08:36;14.65;;;12.27;;
31224;SDS011;17847;31.524;74.366;2023-03-17T08:11:24;15.80;;;14.07;;
31224;SDS011;17847;31.524;74.366;2023-03-17T08:14:07;28.13;;;18.30;;
31224;SDS011;17847;31.524;74.366;2023-03-17T08:16:55;24.00;;;16.50;;
31224;SDS011;17847;31.524;74.366;2023-03-17T08:19:39;20.92;;;15.88;;
31224;SDS011;17847;31.524;74.366;2023-03-17T08:22:27;21.45;;;15.95;;
31224;SDS011;17847;31.524;74.366;2023-03-17T08:25:11;21.80;;;16.20;;
31224;SDS011;17847;31.524;74.366;2023-03-17T08:27:59;17.98;;;14.32;;
31224;SDS011;17847;31.524;74.366;2023-03-17T08:30:42;18.58;;;13.38;;
31224;SDS011;17847;31.524;74.366;2023-03-17T08:33:30;20.90;;;14.25;;
31224;SDS011;17847;31.524;74.366;2023-03-17T08:36:13;21.20;;;12.98;;
31224;SDS011;17847;31.524;74.366;2023-03-17T08:39:03;19.20;;;13.57;;
31224;SDS011;17847;31.524;74.366;2023-03-17T08:41:46;16.55;;;12.68;;
31224;SDS011;17847;31.524;74.366;2023-03-17T08:44:34;17.00;;;13.65;;
31224;SDS011;17847;31.524;74.366;2023-03-17T08:47:23;16.30;;;12.82;;
31224;SDS011;17847;31.524;74.366;2023-03-17T08:50:06;17.25;;;12.05;;
31224;SDS011;17847;31.524;74.366;2023-03-17T08:52:57;16.63;;;11.77;;
31224;SDS011;17847;31.524;74.366;2023-03-17T08:55:39;14.68;;;10.98;;
31224;SDS011;17847;31.524;74.366;2023-03-17T08:58:27;12.80;;;10.75;;
31224;SDS011;17847;31.524;74.366;2023-03-17T09:01:09;13.38;;;11.32;;
31224;SDS011;17847;31.524;74.366;2023-03-17T09:03:59;15.13;;;10.63;;
31224;SDS011;17847;31.524;74.366;2023-03-17T09:06:43;11.13;;;9.70;;
31224;SDS011;17847;31.524;74.366;2023-03-17T09:09:42;11.20;;;8.88;;
31224;SDS011;17847;31.524;74.366;2023-03-17T09:12:18;12.18;;;9.82;;
31224;SDS011;17847;31.524;74.366;2023-03-17T09:15:13;14.52;;;9.15;;
31224;SDS011;17847;31.524;74.366;2023-03-17T09:17:50;10.73;;;8.93;;
31224;SDS011;17847;31.524;74.366;2023-03-17T09:20:45;12.57;;;9.13;;
31224;SDS011;17847;31.524;74.366;2023-03-17T09:23:27;12.98;;;9.25;;
31224;SDS011;17847;31.524;74.366;2023-03-17T09:26:16;13.10;;;9.60;;
31224;SDS011;17847;31.524;74.366;2023-03-17T09:29:00;14.75;;;9.88;;
31224;SDS011;17847;31.524;74.366;2023-03-17T09:31:48;14.27;;;10.65;;
31224;SDS011;17847;31.524;74.366;2023-03-17T09:34:31;11.55;;;9.52;;
31224;SDS011;17847;31.524;74.366;2023-03-17T09:37:20;13.95;;;10.00;;
31224;SDS011;17847;31.524;74.366;2023-03-17T09:40:04;13.82;;;10.80;;
31224;SDS011;17847;31.524;74.366;2023-03-17T09:46:14;17.67;;;11.40;;
31224;SDS011;17847;31.524;74.366;2023-03-17T09:49:18;13.95;;;9.70;;
31224;SDS011;17847;31.524;74.366;2023-03-17T09:52:10;10.85;;;8.63;;
31224;SDS011;17847;31.524;74.366;2023-03-17T09:55:10;12.63;;;7.93;;
31224;SDS011;17847;31.524;74.366;2023-03-17T09:58:01;10.68;;;7.00;;
31224;SDS011;17847;31.524;74.366;2023-03-17T10:00:50;9.90;;;7.25;;
31224;SDS011;17847;31.524;74.366;2023-03-17T10:03:33;13.43;;;8.18;;
31224;SDS011;17847;31.524;74.366;2023-03-17T10:06:26;12.15;;;8.13;;
31224;SDS011;17847;31.524;74.366;2023-03-17T10:09:32;9.25;;;7.50;;
31224;SDS011;17847;31.524;74.366;2023-03-17T10:12:36;8.82;;;6.47;;
31224;SDS011;17847;31.524;74.366;2023-03-17T10:18:53;7.75;;;6.40;;
31224;SDS011;17847;31.524;74.366;2023-03-17T10:21:50;9.15;;;7.10;;
31224;SDS011;17847;31.524;74.366;2023-03-17T10:24:44;13.65;;;7.20;;
31224;SDS011;17847;31.524;74.366;2023-03-17T10:27:30;12.80;;;7.50;;
31224;SDS011;17847;31.524;74.366;2023-03-17T10:30:23;9.77;;;7.40;;
31224;SDS011;17847;31.524;74.366;2023-03-17T10:33:07;12.25;;;7.15;;
31224;SDS011;17847;31.524;74.366;2023-03-17T10:35:55;10.80;;;7.78;;
31224;SDS011;17847;31.524;74.366;2023-03-17T10:38:51;9.90;;;7.50;;
31224;SDS011;17847;31.524;74.366;2023-03-17T10:41:42;16.45;;;8.82;;
31224;SDS011;17847;31.524;74.366;2023-03-17T10:44:38;16.30;;;9.80;;
31224;SDS011;17847;31.524;74.366;2023-03-17T10:47:32;14.75;;;8.95;;
31224;SDS011;17847;31.524;74.366;2023-03-17T10:50:32;11.75;;;7.50;;
31224;SDS011;17847;31.524;74.366;2023-03-17T10:53:23;11.73;;;7.53;;
31224;SDS011;17847;31.524;74.366;2023-03-17T10:56:24;8.77;;;6.22;;
31224;SDS011;17847;31.524;74.366;2023-03-17T10:59:14;8.45;;;6.22;;
31224;SDS011;17847;31.524;74.366;2023-03-17T11:02:29;9.15;;;6.45;;
31224;SDS011;17847;31.524;74.366;2023-03-17T11:05:19;14.57;;;7.47;;
31224;SDS011;17847;31.524;74.366;2023-03-17T11:08:16;10.85;;;8.00;;
31224;SDS011;17847;31.524;74.366;2023-03-17T11:10:59;13.65;;;9.40;;
31224;SDS011;17847;31.524;74.366;2023-03-17T11:14:05;15.57;;;9.55;;
31224;SDS011;17847;31.524;74.366;2023-03-17T11:17:12;22.90;;;11.18;;
31224;SDS011;17847;31.524;74.366;2023-03-17T11:20:19;17.40;;;11.35;;
31224;SDS011;17847;31.524;74.366;2023-03-17T11:26:32;18.52;;;9.65;;
31224;SDS011;17847;31.524;74.366;2023-03-17T11:29:32;15.85;;;10.65;;
31224;SDS011;17847;31.524;74.366;2023-03-17T11:38:26;17.40;;;10.70;;
31224;SDS011;17847;31.524;74.366;2023-03-17T11:44:49;13.88;;;8.32;;
31224;SDS011;17847;31.524;74.366;2023-03-17T11:51:20;10.85;;;7.50;;
31224;SDS011;17847;31.524;74.366;2023-03-17T11:57:25;15.77;;;8.18;;
31224;SDS011;17847;31.524;74.366;2023-03-17T12:00:13;15.75;;;10.07;;
31224;SDS011;17847;31.524;74.366;2023-03-17T12:06:44;18.55;;;12.52;;
31224;SDS011;17847;31.524;74.366;2023-03-17T12:09:39;22.25;;;12.95;;
31224;SDS011;17847;31.524;74.366;2023-03-17T12:12:34;18.73;;;13.52;;
31224;SDS011;17847;31.524;74.366;2023-03-17T12:22:00;15.43;;;10.73;;
31224;SDS011;17847;31.524;74.366;2023-03-17T12:25:56;19.38;;;12.50;;
31224;SDS011;17847;31.524;74.366;2023-03-17T12:28:21;17.67;;;13.45;;
31224;SDS011;17847;31.524;74.366;2023-03-17T12:31:18;18.20;;;13.32;;
31224;SDS011;17847;31.524;74.366;2023-03-17T12:36:58;17.15;;;12.77;;
31224;SDS011;17847;31.524;74.366;2023-03-17T12:39:42;16.10;;;11.40;;
31224;SDS011;17847;31.524;74.366;2023-03-17T12:42:45;17.40;;;11.38;;
31224;SDS011;17847;31.524;74.366;2023-03-17T12:54:45;13.57;;;10.40;;
31224;SDS011;17847;31.524;74.366;2023-03-17T12:57:45;15.18;;;12.13;;
31224;SDS011;17847;31.524;74.366;2023-03-17T13:07:09;17.85;;;11.95;;
31224;SDS011;17847;31.524;74.366;2023-03-17T13:24:58;18.58;;;13.02;;
31224;SDS011;17847;31.524;74.366;2023-03-17T13:28:00;25.88;;;15.43;;
31224;SDS011;17847;31.524;74.366;2023-03-17T13:31:31;25.77;;;15.20;;
31224;SDS011;17847;31.524;74.366;2023-03-17T13:34:18;38.83;;;18.40;;
31224;SDS011;17847;31.524;74.366;2023-03-17T13:52:25;25.67;;;16.23;;
31224;SDS011;17847;31.524;74.366;2023-03-17T13:58:14;22.50;;;14.95;;
31224;SDS011;17847;31.524;74.366;2023-03-17T14:01:03;26.15;;;17.63;;
31224;SDS011;17847;31.524;74.366;2023-03-17T14:03:53;33.85;;;17.50;;
31224;SDS011;17847;31.524;74.366;2023-03-17T14:06:30;28.10;;;17.52;;
31224;SDS011;17847;31.524;74.366;2023-03-17T14:15:19;21.70;;;14.55;;
31224;SDS011;17847;31.524;74.366;2023-03-17T14:18:08;28.60;;;17.27;;
31224;SDS011;17847;31.524;74.366;2023-03-17T14:21:17;24.45;;;16.55;;
31224;SDS011;17847;31.524;74.366;2023-03-17T14:24:00;30.67;;;17.00;;
31224;SDS011;17847;31.524;74.366;2023-03-17T14:27:10;27.73;;;18.33;;
31224;SDS011;17847;31.524;74.366;2023-03-17T14:29:53;25.98;;;17.15;;
31224;SDS011;17847;31.524;74.366;2023-03-17T14:35:36;29.42;;;17.35;;
31224;SDS011;17847;31.524;74.366;2023-03-17T14:38:34;31.33;;;17.75;;
31224;SDS011;17847;31.524;74.366;2023-03-17T14:41:21;29.15;;;18.05;;
31224;SDS011;17847;31.524;74.366;2023-03-17T14:44:18;32.17;;;17.73;;
31224;SDS011;17847;31.524;74.366;2023-03-17T14:47:01;21.95;;;15.88;;
31224;SDS011;17847;31.524;74.366;2023-03-17T14:49:52;33.60;;;20.13;;
31224;SDS011;17847;31.524;74.366;2023-03-17T14:52:35;31.38;;;18.00;;
31224;SDS011;17847;31.524;74.366;2023-03-17T14:55:39;38.42;;;19.95;;
31224;SDS011;17847;31.524;74.366;2023-03-17T14:58:25;32.13;;;20.92;;
31224;SDS011;17847;31.524;74.366;2023-03-17T15:01:41;33.88;;;21.27;;
31224;SDS011;17847;31.524;74.366;2023-03-17T15:04:26;29.58;;;18.85;;
31224;SDS011;17847;31.524;74.366;2023-03-17T15:10:19;29.02;;;18.27;;
31224;SDS011;17847;31.524;74.366;2023-03-17T15:13:13;40.20;;;23.40;;
31224;SDS011;17847;31.524;74.366;2023-03-17T15:15:56;33.80;;;23.65;;
31224;SDS011;17847;31.524;74.366;2023-03-17T15:18:47;40.05;;;25.23;;
31224;SDS011;17847;31.524;74.366;2023-03-17T15:21:40;40.60;;;23.92;;
31224;SDS011;17847;31.524;74.366;2023-03-17T15:24:37;45.70;;;24.67;;
31224;SDS011;17847;31.524;74.366;2023-03-17T15:27:21;35.67;;;23.77;;
31224;SDS011;17847;31.524;74.366;2023-03-17T15:30:10;36.65;;;25.48;;
31224;SDS011;17847;31.524;74.366;2023-03-17T15:32:57;43.28;;;25.40;;
31224;SDS011;17847;31.524;74.366;2023-03-17T15:35:48;46.88;;;25.23;;
31224;SDS011;17847;31.524;74.366;2023-03-17T15:38:31;47.75;;;27.40;;
31224;SDS011;17847;31.524;74.366;2023-03-17T15:41:21;49.70;;;26.48;;
31224;SDS011;17847;31.524;74.366;2023-03-17T15:44:04;49.85;;;26.00;;
31224;SDS011;17847;31.524;74.366;2023-03-17T15:46:53;43.70;;;25.95;;
31224;SDS011;17847;31.524;74.366;2023-03-17T15:49:36;42.67;;;26.48;;
31224;SDS011;17847;31.524;74.366;2023-03-17T15:52:31;46.70;;;26.40;;
31224;SDS011;17847;31.524;74.366;2023-03-17T15:55:26;41.88;;;26.48;;
31224;SDS011;17847;31.524;74.366;2023-03-17T15:58:22;47.60;;;27.27;;
31224;SDS011;17847;31.524;74.366;2023-03-17T16:01:07;47.28;;;25.65;;
31224;SDS011;17847;31.524;74.366;2023-03-17T16:03:59;43.83;;;26.35;;
31224;SDS011;17847;31.524;74.366;2023-03-17T16:06:42;44.33;;;26.25;;
31224;SDS011;17847;31.524;74.366;2023-03-17T16:09:31;49.28;;;27.52;;
31224;SDS011;17847;31.524;74.366;2023-03-17T16:12:10;46.97;;;24.55;;
31224;SDS011;17847;31.524;74.366;2023-03-17T16:15:07;44.40;;;27.98;;
31224;SDS011;17847;31.524;74.366;2023-03-17T16:17:57;32.53;;;23.27;;
31224;SDS011;17847;31.524;74.366;2023-03-17T16:20:50;33.60;;;24.20;;
31224;SDS011;17847;31.524;74.366;2023-03-17T16:23:47;32.20;;;22.17;;
31224;SDS011;17847;31.524;74.366;2023-03-17T16:26:30;39.83;;;25.42;;
31224;SDS011;17847;31.524;74.366;2023-03-17T16:29:19;39.17;;;24.05;;
31224;SDS011;17847;31.524;74.366;2023-03-17T16:31:55;33.72;;;21.40;;
31224;SDS011;17847;31.524;74.366;2023-03-17T16:34:50;34.78;;;22.02;;
31224;SDS011;17847;31.524;74.366;2023-03-17T16:37:46;33.67;;;21.50;;
31224;SDS011;17847;31.524;74.366;2023-03-17T16:40:33;34.47;;;20.13;;
31224;SDS011;17847;31.524;74.366;2023-03-17T16:43:32;33.50;;;20.17;;
31224;SDS011;17847;31.524;74.366;2023-03-17T16:46:18;30.23;;;20.30;;
31224;SDS011;17847;31.524;74.366;2023-03-17T16:49:16;30.88;;;20.23;;
31224;SDS011;17847;31.524;74.366;2023-03-17T16:51:54;29.27;;;20.60;;
31224;SDS011;17847;31.524;74.366;2023-03-17T16:54:49;32.75;;;22.65;;
31224;SDS011;17847;31.524;74.366;2023-03-17T16:57:31;31.05;;;19.17;;
31224;SDS011;17847;31.524;74.366;2023-03-17T17:00:24;40.83;;;21.83;;
31224;SDS011;17847;31.524;74.366;2023-03-17T17:03:12;39.22;;;24.17;;
31224;SDS011;17847;31.524;74.366;2023-03-17T17:06:00;34.55;;;20.88;;
31224;SDS011;17847;31.524;74.366;2023-03-17T17:08:43;34.20;;;21.90;;
31224;SDS011;17847;31.524;74.366;2023-03-17T17:11:32;34.38;;;21.05;;
31224;SDS011;17847;31.524;74.366;2023-03-17T17:14:15;35.88;;;22.08;;
31224;SDS011;17847;31.524;74.366;2023-03-17T17:17:03;34.15;;;21.70;;
31224;SDS011;17847;31.524;74.366;2023-03-17T17:19:46;33.33;;;19.48;;
31224;SDS011;17847;31.524;74.366;2023-03-17T17:22:35;30.20;;;20.40;;
31224;SDS011;17847;31.524;74.366;2023-03-17T17:25:18;31.52;;;20.65;;
31224;SDS011;17847;31.524;74.366;2023-03-17T17:28:07;25.90;;;19.63;;
31224;SDS011;17847;31.524;74.366;2023-03-17T17:30:50;38.28;;;22.63;;
31224;SDS011;17847;31.524;74.366;2023-03-17T17:33:46;38.65;;;24.27;;
31224;SDS011;17847;31.524;74.366;2023-03-17T17:36:28;43.05;;;24.25;;
31224;SDS011;17847;31.524;74.366;2023-03-17T17:39:17;32.90;;;23.15;;
31224;SDS011;17847;31.524;74.366;2023-03-17T17:42:00;42.65;;;23.85;;
31224;SDS011;17847;31.524;74.366;2023-03-17T17:44:49;32.43;;;25.80;;
31224;SDS011;17847;31.524;74.366;2023-03-17T17:47:37;36.70;;;24.23;;
31224;SDS011;17847;31.524;74.366;2023-03-17T17:50:26;41.78;;;26.85;;
31224;SDS011;17847;31.524;74.366;2023-03-17T17:53:15;45.13;;;27.70;;
31224;SDS011;17847;31.524;74.366;2023-03-17T17:55:58;40.28;;;28.95;;
31224;SDS011;17847;31.524;74.366;2023-03-17T17:58:46;44.13;;;28.45;;
31224;SDS011;17847;31.524;74.366;2023-03-17T18:01:30;44.63;;;28.88;;
31224;SDS011;17847;31.524;74.366;2023-03-17T18:04:20;45.05;;;31.65;;
31224;SDS011;17847;31.524;74.366;2023-03-17T18:07:03;47.28;;;28.30;;
31224;SDS011;17847;31.524;74.366;2023-03-17T18:09:51;42.35;;;29.77;;
31224;SDS011;17847;31.524;74.366;2023-03-17T18:12:34;40.25;;;29.20;;
31224;SDS011;17847;31.524;74.366;2023-03-17T18:15:24;31.95;;;24.90;;
31224;SDS011;17847;31.524;74.366;2023-03-17T18:18:08;35.53;;;25.33;;
31224;SDS011;17847;31.524;74.366;2023-03-17T18:20:56;32.28;;;24.27;;
31224;SDS011;17847;31.524;74.366;2023-03-17T18:23:40;30.67;;;22.45;;
31224;SDS011;17847;31.524;74.366;2023-03-17T18:26:30;31.65;;;21.92;;
31224;SDS011;17847;31.524;74.366;2023-03-17T18:29:13;42.13;;;27.77;;
31224;SDS011;17847;31.524;74.366;2023-03-17T18:32:01;31.45;;;23.95;;
31224;SDS011;17847;31.524;74.366;2023-03-17T18:34:45;36.63;;;24.88;;
31224;SDS011;17847;31.524;74.366;2023-03-17T18:37:34;31.58;;;23.65;;
31224;SDS011;17847;31.524;74.366;2023-03-17T18:40:18;31.65;;;22.15;;
31224;SDS011;17847;31.524;74.366;2023-03-17T18:43:06;39.25;;;22.17;;
31224;SDS011;17847;31.524;74.366;2023-03-17T18:45:55;32.53;;;21.48;;
31224;SDS011;17847;31.524;74.366;2023-03-17T18:48:38;33.58;;;19.95;;
31224;SDS011;17847;31.524;74.366;2023-03-17T18:51:27;27.15;;;19.48;;
31224;SDS011;17847;31.524;74.366;2023-03-17T18:54:03;30.88;;;19.95;;
31224;SDS011;17847;31.524;74.366;2023-03-17T18:56:58;34.35;;;22.13;;
31224;SDS011;17847;31.524;74.366;2023-03-17T18:59:42;32.28;;;18.10;;
31224;SDS011;17847;31.524;74.366;2023-03-17T19:02:31;27.50;;;19.25;;
31224;SDS011;17847;31.524;74.366;2023-03-17T19:05:14;29.63;;;21.52;;
31224;SDS011;17847;31.524;74.366;2023-03-17T19:08:03;47.05;;;30.33;;
31224;SDS011;17847;31.524;74.366;2023-03-17T19:10:47;39.53;;;30.85;;
31224;SDS011;17847;31.524;74.366;2023-03-17T19:13:36;42.95;;;33.22;;
31224;SDS011;17847;31.524;74.366;2023-03-17T19:16:18;45.08;;;36.13;;
31224;SDS011;17847;31.524;74.366;2023-03-17T19:19:16;47.55;;;35.22;;
31224;SDS011;17847;31.524;74.366;2023-03-17T19:21:58;56.33;;;38.85;;
31224;SDS011;17847;31.524;74.366;2023-03-17T19:24:48;49.67;;;38.53;;
31224;SDS011;17847;31.524;74.366;2023-03-17T19:27:31;52.88;;;37.60;;
31224;SDS011;17847;31.524;74.366;2023-03-17T19:30:26;64.85;;;43.15;;
31224;SDS011;17847;31.524;74.366;2023-03-17T19:33:08;60.58;;;43.25;;
31224;SDS011;17847;31.524;74.366;2023-03-17T19:35:58;65.45;;;45.55;;
31224;SDS011;17847;31.524;74.366;2023-03-17T19:38:40;69.65;;;45.40;;
31224;SDS011;17847;31.524;74.366;2023-03-17T19:41:29;63.42;;;42.95;;
31224;SDS011;17847;31.524;74.366;2023-03-17T19:44:11;73.55;;;46.88;;
31224;SDS011;17847;31.524;74.366;2023-03-17T19:47:01;67.80;;;46.17;;
31224;SDS011;17847;31.524;74.366;2023-03-17T19:49:57;62.17;;;43.13;;